Baudette International Airport Baudette US
ICAO: KBDE
IATA: BDE
Category: Medium
Scheduled Services: No

Elevation: 1086 ft
TransAlt. 18000 ft.

Airport Communications:
ASOS:126.775
PRINCETON RDO:122.4
CTAF/UNICOM:122.8

KBDE Zoom In..

Runways:

(A) RW 12 length 5499 ft width 100 ft
---- / hdg 117

(B) RW 30 length 5499 ft width 100 ft
ILS 108.30 / hdg 297

Location; KBDE
Day. 23 / Time. 02.53 Zulu
* Altimeter: 30.03
* Temperature: 22° c. 71.6°f.
* Wind from: 190° Speed 06 kn.
Dewpoint: 17° c.
Visibility: 10 Statute Miles.
Clouds: Clear (automated report).

KBDE 230253Z AUTO 19006KT 10SM CLR 22/17 A3003 RMK AO2 SLP168 T02170172 55007


Wind From 190°
Speed 06 kn.

 
 
jpsmedia.com for Web Design worldairports.se 2018   terms of use